sensor_id;sensor_type;location;lat;lon;timestamp;P1;durP1;ratioP1;P2;durP2;ratioP2
59314;SDS011;46521;50.160;20.802;2023-08-01T00:17:13;9.10;;;5.20;;
59314;SDS011;46521;50.160;20.802;2023-08-01T00:27:15;9.27;;;5.43;;
59314;SDS011;46521;50.160;20.802;2023-08-01T00:37:17;9.45;;;5.45;;
59314;SDS011;46521;50.160;20.802;2023-08-01T00:47:18;11.07;;;5.57;;
59314;SDS011;46521;50.160;20.802;2023-08-01T00:57:20;9.23;;;4.97;;
59314;SDS011;46521;50.160;20.802;2023-08-01T01:07:22;9.90;;;4.93;;
59314;SDS011;46521;50.160;20.802;2023-08-01T01:17:25;9.25;;;4.90;;
59314;SDS011;46521;50.160;20.802;2023-08-01T01:27:26;9.55;;;4.88;;
59314;SDS011;46521;50.160;20.802;2023-08-01T01:37:29;9.05;;;4.65;;
59314;SDS011;46521;50.160;20.802;2023-08-01T01:47:31;8.45;;;4.60;;
59314;SDS011;46521;50.160;20.802;2023-08-01T01:57:32;8.30;;;4.90;;
59314;SDS011;46521;50.160;20.802;2023-08-01T02:07:37;8.95;;;5.25;;
59314;SDS011;46521;50.160;20.802;2023-08-01T02:17:38;7.93;;;4.43;;
59314;SDS011;46521;50.160;20.802;2023-08-01T02:27:40;12.23;;;5.03;;
59314;SDS011;46521;50.160;20.802;2023-08-01T02:37:42;9.40;;;5.10;;
59314;SDS011;46521;50.160;20.802;2023-08-01T02:47:44;9.93;;;5.53;;
59314;SDS011;46521;50.160;20.802;2023-08-01T02:57:46;11.43;;;5.73;;
59314;SDS011;46521;50.160;20.802;2023-08-01T03:07:47;11.40;;;5.30;;
59314;SDS011;46521;50.160;20.802;2023-08-01T03:17:49;8.35;;;4.95;;
59314;SDS011;46521;50.160;20.802;2023-08-01T03:27:50;9.18;;;5.53;;
59314;SDS011;46521;50.160;20.802;2023-08-01T03:37:52;8.35;;;4.68;;
59314;SDS011;46521;50.160;20.802;2023-08-01T03:47:53;8.47;;;4.37;;
59314;SDS011;46521;50.160;20.802;2023-08-01T03:57:55;8.77;;;4.80;;
59314;SDS011;46521;50.160;20.802;2023-08-01T04:07:56;10.65;;;5.10;;
59314;SDS011;46521;50.160;20.802;2023-08-01T04:17:58;8.53;;;4.80;;
59314;SDS011;46521;50.160;20.802;2023-08-01T04:27:59;9.55;;;5.70;;
59314;SDS011;46521;50.160;20.802;2023-08-01T04:38:01;9.40;;;5.03;;
59314;SDS011;46521;50.160;20.802;2023-08-01T04:48:02;8.28;;;5.00;;
59314;SDS011;46521;50.160;20.802;2023-08-01T04:58:04;9.23;;;4.85;;
59314;SDS011;46521;50.160;20.802;2023-08-01T05:08:05;8.00;;;4.50;;
59314;SDS011;46521;50.160;20.802;2023-08-01T05:18:07;7.68;;;4.15;;
59314;SDS011;46521;50.160;20.802;2023-08-01T05:28:08;8.50;;;4.63;;
59314;SDS011;46521;50.160;20.802;2023-08-01T05:38:10;9.20;;;4.30;;
59314;SDS011;46521;50.160;20.802;2023-08-01T05:48:12;8.93;;;4.43;;
59314;SDS011;46521;50.160;20.802;2023-08-01T05:58:14;9.37;;;4.27;;
59314;SDS011;46521;50.160;20.802;2023-08-01T06:08:16;7.30;;;4.23;;
59314;SDS011;46521;50.160;20.802;2023-08-01T06:18:17;7.78;;;4.48;;
59314;SDS011;46521;50.160;20.802;2023-08-01T06:28:19;8.10;;;4.27;;
59314;SDS011;46521;50.160;20.802;2023-08-01T06:38:20;5.93;;;3.43;;
59314;SDS011;46521;50.160;20.802;2023-08-01T06:48:22;6.73;;;3.73;;
59314;SDS011;46521;50.160;20.802;2023-08-01T06:58:23;8.30;;;3.73;;
59314;SDS011;46521;50.160;20.802;2023-08-01T07:08:25;8.53;;;4.03;;
59314;SDS011;46521;50.160;20.802;2023-08-01T07:18:26;7.10;;;3.83;;
59314;SDS011;46521;50.160;20.802;2023-08-01T07:28:28;7.07;;;4.27;;
59314;SDS011;46521;50.160;20.802;2023-08-01T07:38:29;7.03;;;3.90;;
59314;SDS011;46521;50.160;20.802;2023-08-01T07:58:36;7.95;;;4.00;;
59314;SDS011;46521;50.160;20.802;2023-08-01T08:08:37;8.23;;;4.10;;
59314;SDS011;46521;50.160;20.802;2023-08-01T08:18:38;7.20;;;3.35;;
59314;SDS011;46521;50.160;20.802;2023-08-01T08:28:40;8.40;;;3.60;;
59314;SDS011;46521;50.160;20.802;2023-08-01T08:38:43;7.75;;;4.10;;
59314;SDS011;46521;50.160;20.802;2023-08-01T08:48:44;9.35;;;5.05;;
59314;SDS011;46521;50.160;20.802;2023-08-01T08:58:47;7.93;;;3.80;;
59314;SDS011;46521;50.160;20.802;2023-08-01T09:08:50;8.60;;;4.10;;
59314;SDS011;46521;50.160;20.802;2023-08-01T09:18:55;7.75;;;3.60;;
59314;SDS011;46521;50.160;20.802;2023-08-01T09:28:57;7.90;;;3.50;;
59314;SDS011;46521;50.160;20.802;2023-08-01T09:39:03;6.67;;;3.10;;
59314;SDS011;46521;50.160;20.802;2023-08-01T09:49:11;6.78;;;3.43;;
59314;SDS011;46521;50.160;20.802;2023-08-01T09:59:13;6.00;;;3.10;;
59314;SDS011;46521;50.160;20.802;2023-08-01T10:09:19;7.87;;;3.57;;
59314;SDS011;46521;50.160;20.802;2023-08-01T10:19:22;7.60;;;3.70;;
59314;SDS011;46521;50.160;20.802;2023-08-01T10:29:35;9.45;;;3.90;;
59314;SDS011;46521;50.160;20.802;2023-08-01T10:39:37;6.80;;;3.37;;
59314;SDS011;46521;50.160;20.802;2023-08-01T10:49:39;7.55;;;3.68;;
59314;SDS011;46521;50.160;20.802;2023-08-01T10:59:45;7.63;;;3.40;;
59314;SDS011;46521;50.160;20.802;2023-08-01T11:09:47;6.90;;;3.68;;
59314;SDS011;46521;50.160;20.802;2023-08-01T11:19:48;6.90;;;3.70;;
59314;SDS011;46521;50.160;20.802;2023-08-01T11:29:50;6.17;;;3.13;;
59314;SDS011;46521;50.160;20.802;2023-08-01T11:39:51;6.93;;;3.08;;
59314;SDS011;46521;50.160;20.802;2023-08-01T11:49:53;6.93;;;3.03;;
59314;SDS011;46521;50.160;20.802;2023-08-01T11:59:55;7.07;;;3.67;;
59314;SDS011;46521;50.160;20.802;2023-08-01T12:09:58;7.33;;;3.37;;
59314;SDS011;46521;50.160;20.802;2023-08-01T12:20:01;9.47;;;3.80;;
59314;SDS011;46521;50.160;20.802;2023-08-01T12:30:02;7.45;;;3.70;;
59314;SDS011;46521;50.160;20.802;2023-08-01T12:40:04;6.97;;;3.50;;
59314;SDS011;46521;50.160;20.802;2023-08-01T12:50:06;5.83;;;3.03;;
59314;SDS011;46521;50.160;20.802;2023-08-01T13:00:08;6.87;;;3.33;;
59314;SDS011;46521;50.160;20.802;2023-08-01T13:10:11;6.73;;;3.13;;
59314;SDS011;46521;50.160;20.802;2023-08-01T13:20:12;7.67;;;3.37;;
59314;SDS011;46521;50.160;20.802;2023-08-01T13:30:14;6.27;;;3.27;;
59314;SDS011;46521;50.160;20.802;2023-08-01T13:40:18;7.48;;;3.00;;
59314;SDS011;46521;50.160;20.802;2023-08-01T13:50:20;7.10;;;2.70;;
59314;SDS011;46521;50.160;20.802;2023-08-01T14:00:21;6.17;;;2.70;;
59314;SDS011;46521;50.160;20.802;2023-08-01T14:10:23;6.90;;;2.60;;
59314;SDS011;46521;50.160;20.802;2023-08-01T14:20:24;6.80;;;3.00;;
59314;SDS011;46521;50.160;20.802;2023-08-01T14:30:27;7.73;;;2.90;;
59314;SDS011;46521;50.160;20.802;2023-08-01T14:40:28;6.90;;;2.70;;
59314;SDS011;46521;50.160;20.802;2023-08-01T14:50:30;6.63;;;2.80;;
59314;SDS011;46521;50.160;20.802;2023-08-01T15:00:35;7.40;;;2.80;;
59314;SDS011;46521;50.160;20.802;2023-08-01T15:10:37;6.08;;;2.53;;
59314;SDS011;46521;50.160;20.802;2023-08-01T15:20:38;7.20;;;3.30;;
59314;SDS011;46521;50.160;20.802;2023-08-01T15:30:41;6.20;;;2.63;;
59314;SDS011;46521;50.160;20.802;2023-08-01T15:40:43;7.90;;;3.13;;
59314;SDS011;46521;50.160;20.802;2023-08-01T15:50:44;7.93;;;4.05;;
59314;SDS011;46521;50.160;20.802;2023-08-01T16:00:46;6.70;;;3.03;;
59314;SDS011;46521;50.160;20.802;2023-08-01T16:10:48;8.70;;;3.20;;
59314;SDS011;46521;50.160;20.802;2023-08-01T16:20:49;7.90;;;2.93;;
59314;SDS011;46521;50.160;20.802;2023-08-01T16:30:51;8.10;;;3.40;;
59314;SDS011;46521;50.160;20.802;2023-08-01T16:40:52;9.48;;;5.40;;
59314;SDS011;46521;50.160;20.802;2023-08-01T16:50:54;8.28;;;3.63;;
59314;SDS011;46521;50.160;20.802;2023-08-01T17:00:55;8.55;;;3.55;;
59314;SDS011;46521;50.160;20.802;2023-08-01T17:10:57;7.73;;;3.83;;
59314;SDS011;46521;50.160;20.802;2023-08-01T17:20:59;9.43;;;4.20;;
59314;SDS011;46521;50.160;20.802;2023-08-01T17:31:04;7.67;;;3.70;;
59314;SDS011;46521;50.160;20.802;2023-08-01T17:41:19;10.10;;;4.43;;
59314;SDS011;46521;50.160;20.802;2023-08-01T17:51:25;10.47;;;4.17;;
59314;SDS011;46521;50.160;20.802;2023-08-01T18:01:26;12.43;;;5.73;;
59314;SDS011;46521;50.160;20.802;2023-08-01T18:11:29;9.90;;;4.63;;
59314;SDS011;46521;50.160;20.802;2023-08-01T18:21:31;9.75;;;4.20;;
59314;SDS011;46521;50.160;20.802;2023-08-01T18:31:32;6.35;;;3.33;;
59314;SDS011;46521;50.160;20.802;2023-08-01T18:41:34;9.00;;;3.80;;
59314;SDS011;46521;50.160;20.802;2023-08-01T18:51:35;10.83;;;3.50;;
59314;SDS011;46521;50.160;20.802;2023-08-01T19:01:37;8.57;;;3.90;;
59314;SDS011;46521;50.160;20.802;2023-08-01T19:11:38;10.07;;;4.70;;
59314;SDS011;46521;50.160;20.802;2023-08-01T19:21:40;8.37;;;4.03;;
59314;SDS011;46521;50.160;20.802;2023-08-01T19:31:42;7.80;;;3.50;;
59314;SDS011;46521;50.160;20.802;2023-08-01T19:41:44;7.30;;;3.00;;
59314;SDS011;46521;50.160;20.802;2023-08-01T19:51:45;6.87;;;3.33;;
59314;SDS011;46521;50.160;20.802;2023-08-01T20:01:47;7.20;;;2.70;;
59314;SDS011;46521;50.160;20.802;2023-08-01T20:11:49;8.40;;;3.00;;
59314;SDS011;46521;50.160;20.802;2023-08-01T20:21:51;6.80;;;2.55;;
59314;SDS011;46521;50.160;20.802;2023-08-01T20:31:53;6.55;;;2.58;;
59314;SDS011;46521;50.160;20.802;2023-08-01T20:41:55;7.85;;;2.80;;
59314;SDS011;46521;50.160;20.802;2023-08-01T20:51:57;6.55;;;2.40;;
59314;SDS011;46521;50.160;20.802;2023-08-01T21:01:58;7.75;;;2.38;;
59314;SDS011;46521;50.160;20.802;2023-08-01T21:12:00;6.25;;;2.35;;
59314;SDS011;46521;50.160;20.802;2023-08-01T21:22:02;6.47;;;2.40;;
59314;SDS011;46521;50.160;20.802;2023-08-01T21:32:03;5.90;;;2.57;;
59314;SDS011;46521;50.160;20.802;2023-08-01T21:42:05;6.17;;;2.33;;
59314;SDS011;46521;50.160;20.802;2023-08-01T21:52:07;7.23;;;2.67;;
59314;SDS011;46521;50.160;20.802;2023-08-01T22:02:09;6.70;;;2.30;;
59314;SDS011;46521;50.160;20.802;2023-08-01T22:12:10;8.40;;;2.50;;
59314;SDS011;46521;50.160;20.802;2023-08-01T22:22:12;5.53;;;2.10;;
59314;SDS011;46521;50.160;20.802;2023-08-01T22:32:13;7.73;;;2.40;;
59314;SDS011;46521;50.160;20.802;2023-08-01T22:42:15;5.40;;;2.03;;
59314;SDS011;46521;50.160;20.802;2023-08-01T22:52:16;7.65;;;2.80;;
59314;SDS011;46521;50.160;20.802;2023-08-01T23:02:18;5.70;;;2.10;;
59314;SDS011;46521;50.160;20.802;2023-08-01T23:12:19;5.60;;;2.05;;
59314;SDS011;46521;50.160;20.802;2023-08-01T23:22:21;6.58;;;2.35;;
59314;SDS011;46521;50.160;20.802;2023-08-01T23:32:22;6.65;;;1.95;;
59314;SDS011;46521;50.160;20.802;2023-08-01T23:42:24;5.20;;;2.00;;
59314;SDS011;46521;50.160;20.802;2023-08-01T23:52:26;6.30;;;2.38;;
